createdAt,value
2023-03-18T00:04:32.360Z,13.35
2023-03-18T00:14:36.277Z,13.31
2023-03-18T00:24:40.873Z,13.22
2023-03-18T00:34:43.531Z,13.11
2023-03-18T00:44:47.547Z,13.12
2023-03-18T00:54:50.276Z,13.01
2023-03-18T01:04:54.319Z,13.08
2023-03-18T01:14:57.983Z,12.97
2023-03-18T01:25:02.487Z,13.11
2023-03-18T01:35:06.697Z,13.07
2023-03-18T01:45:23.144Z,13.05
2023-03-18T01:55:29.080Z,12.86
2023-03-18T02:05:33.890Z,12.86
2023-03-18T02:15:44.621Z,12.88
2023-03-18T02:25:54.946Z,12.82
2023-03-18T02:36:01.940Z,12.74
2023-03-18T02:46:15.391Z,12.67
2023-03-18T02:56:19.716Z,12.48
2023-03-18T03:06:22.349Z,12.29
2023-03-18T03:16:26.516Z,12.31
2023-03-18T03:26:29.178Z,12.32
2023-03-18T03:36:33.584Z,12.32
2023-03-18T03:46:36.506Z,12.18
2023-03-18T03:56:40.932Z,11.99
2023-03-18T04:06:43.565Z,12.00
2023-03-18T04:16:47.531Z,11.77
2023-03-18T04:26:50.909Z,11.66
2023-03-18T04:36:55.526Z,11.53
2023-03-18T04:46:58.321Z,11.60
2023-03-18T04:57:02.382Z,11.68
2023-03-18T05:07:05.455Z,11.52
2023-03-18T05:17:15.427Z,11.47
2023-03-18T05:27:19.908Z,11.39
2023-03-18T05:37:25.447Z,11.33
2023-03-18T05:47:28.531Z,11.27
2023-03-18T05:57:32.656Z,11.31
2023-03-18T06:07:35.320Z,11.47
2023-03-18T06:17:39.563Z,11.54
2023-03-18T06:27:42.495Z,11.59
2023-03-18T06:37:46.796Z,11.78
2023-03-18T06:47:50.162Z,11.97
2023-03-18T06:57:54.829Z,12.05
2023-03-18T07:07:58.413Z,12.02
2023-03-18T07:18:05.159Z,12.04
2023-03-18T07:28:07.919Z,12.34
2023-03-18T07:38:12.429Z,12.82
2023-03-18T07:48:15.462Z,12.97
2023-03-18T07:58:19.761Z,13.10
2023-03-18T08:08:22.619Z,13.48
2023-03-18T08:18:27.053Z,13.48
2023-03-18T08:28:29.975Z,13.41
2023-03-18T08:38:34.219Z,14.18
2023-03-18T08:48:36.903Z,14.82
2023-03-18T08:58:42.274Z,14.72
2023-03-18T09:08:48.918Z,15.28
2023-03-18T09:18:52.967Z,15.12
2023-03-18T09:28:55.920Z,15.51
2023-03-18T09:39:00.887Z,15.98
2023-03-18T09:49:16.054Z,15.80
2023-03-18T09:59:25.385Z,16.55
2023-03-18T10:09:31.812Z,16.48
2023-03-18T10:19:37.591Z,15.90
2023-03-18T10:29:48.380Z,15.76
2023-03-18T10:39:53.291Z,15.72
2023-03-18T10:50:06.002Z,16.19
2023-03-18T11:00:26.667Z,16.78
2023-03-18T11:10:34.750Z,16.94
2023-03-18T11:20:45.076Z,18.56
2023-03-18T11:30:51.719Z,19.11
2023-03-18T11:41:08.721Z,18.51
2023-03-18T11:51:27.364Z,17.33
2023-03-18T12:01:41.235Z,17.20
2023-03-18T12:11:55.498Z,25.18
2023-03-18T12:22:18.388Z,21.51
2023-03-18T12:32:27.465Z,17.51
2023-03-18T12:42:46.867Z,19.23
2023-03-18T12:52:54.086Z,23.38
2023-03-18T13:03:06.902Z,21.24
2023-03-18T13:13:11.125Z,26.46
2023-03-18T13:23:51.026Z,23.84
2023-03-18T13:34:19.786Z,20.57
2023-03-18T13:44:29.997Z,22.21
2023-03-18T13:54:36.840Z,21.93
2023-03-18T14:04:48.429Z,19.68
2023-03-18T14:15:05.745Z,19.50
2023-03-18T14:25:37.155Z,21.19
2023-03-18T14:35:49.791Z,19.41
2023-03-18T14:45:58.730Z,19.12
2023-03-18T14:56:03.696Z,19.40
2023-03-18T15:06:08.517Z,19.31
2023-03-18T15:16:14.565Z,19.35
2023-03-18T15:26:22.333Z,19.10
2023-03-18T15:36:25.093Z,18.80
2023-03-18T15:46:31.632Z,18.96
2023-03-18T15:56:36.053Z,18.65
2023-03-18T16:06:40.392Z,18.24
2023-03-18T16:16:43.454Z,18.18
2023-03-18T16:26:47.773Z,18.17
2023-03-18T16:36:52.014Z,18.08
2023-03-18T16:46:58.397Z,17.97
2023-03-18T16:57:04.297Z,17.70
2023-03-18T17:07:08.736Z,17.48
2023-03-18T17:17:17.740Z,17.22
2023-03-18T17:27:25.954Z,17.16
2023-03-18T17:37:28.872Z,16.90
2023-03-18T17:47:32.979Z,16.51
2023-03-18T17:57:35.829Z,16.39
2023-03-18T18:07:44.616Z,16.25
2023-03-18T18:17:48.493Z,13.24
2023-03-18T18:27:53.110Z,11.89
2023-03-18T18:37:56.169Z,11.69
2023-03-18T18:59:26.931Z,11.71
2023-03-18T19:09:30.088Z,11.91
2023-03-18T19:19:35.383Z,11.88
2023-03-18T19:29:40.709Z,11.96
2023-03-18T19:39:45.902Z,12.02
2023-03-18T19:49:48.746Z,11.79
2023-03-18T19:59:55.153Z,11.67
2023-03-18T20:09:58.208Z,11.38
2023-03-18T20:20:02.349Z,11.18
2023-03-18T20:30:17.420Z,11.04
2023-03-18T20:40:24.999Z,10.99
2023-03-18T20:50:29.658Z,10.86
2023-03-18T21:00:34.174Z,10.77
2023-03-18T21:10:37.219Z,10.63
2023-03-18T21:20:41.693Z,10.68
2023-03-18T21:30:45.416Z,10.73
2023-03-18T21:40:49.474Z,10.66
2023-03-18T21:50:52.162Z,10.57
2023-03-18T22:00:58.512Z,10.53
2023-03-18T22:11:01.414Z,10.53
2023-03-18T22:21:12.843Z,10.50
2023-03-18T22:31:21.275Z,10.43
2023-03-18T22:41:29.182Z,10.42
2023-03-18T22:51:35.610Z,10.30
2023-03-18T23:01:39.625Z,10.30
2023-03-18T23:11:42.303Z,10.25
2023-03-18T23:21:46.320Z,10.39
2023-03-18T23:31:49.021Z,10.62
2023-03-18T23:41:53.094Z,10.74
2023-03-18T23:51:55.770Z,10.73
